East Norwich, New York
Current Conditions -  °F | °C
As of 2:04 PM on Thursday 23 Oct 2014 (Local Time) from KFRG Reporting Station
Haze Haze  
Wind Chill: 51°   Ceiling: 1200
Heat Index: 51°   Visibility: 2.5mi
Dew Point: 47°   Wind: 16mph
Humidity: 86%   Direction: 340°NNW
Pressure: 29.66"   Gusts: 26mph
Location:  40.85°N, 73.53°W
Report Text: KFRG 231804Z 34014G23KT 2 1/2SM BR BKN012 BKN020 OVC031 11/08 A2966 RMK AO2 SFC VIS 4 T01060083
Loading
Personal Weather Stations






























Interactive Weather Map
Tropical Storm Tracking
New forecast layout! Learn more

10-Day Weather Forecast

Advertisements
Track Severe Weather on mobile